Enter the Airport ICAO Code

Search by Airport or City

Current Weather

MMMM | General Francisco J. Mujica International Airport

Morelia, Michoacán, Mexico

Last Update 48 Minutes Ago

Clear Sky

Temperature of 13 ºC

Calm Wind

Temperature

13 ºC

Dew Point Temperature

10 ºC

Relative Humidity

82.07 %

Wind Direction

None

Wind Velocity

0 km/h (0 kt)

Gusts

None

Visibility

Reduced to 7 Miles

Sea Level Pressure

30.25 inHg (Inches of Mercury)

Layers of Clouds

None

METAR MMMM 090240Z 00000KT 7SM SKC 13/10 A3025 RMK SLP161 52011 964 HZY

Weather Forecast

MMMM | General Francisco J. Mujica International Airport

Morelia, Michoacán, Mexico

Forecast valid for the next 27 Hours

From now on it is expected:

Clear Sky

Calm Wind

In 13 hours it is expected the begining of:

Moderate Winds from South

In 22 to 23 hours it is expected the begining of:

Calm Wind

Maximum Temperature

No Data

Minimum Temperature

No Data

TAF MMMM 082312Z 0900/1006 00000KT P6SM SKC BECMG 0908/0909 5SM HZ FM091600 18010KT P6SM SKC BECMG 1001/1002 00000KT